Terminal Aerodrome Forecast
Issued by NWS

Home | Current Version | Previous Version | Text Only | Print | Product List | Glossary On
Versions: 1 2 3 4 5 6 7 8 9 10 11 12 13 14 15 16 17 18 19 20 21 22 23 24 25 26
705
FTUS43 KDLH 280540
TAFHYR
TAF
KHYR 280540Z 2806/2906 00000KT 4SM BR OVC006
     FM280900 00000KT 2SM BR OVC004
      TEMPO 2810/2812 1/2SM -DZ FG OVC001
     FM281500 20003KT 4SM BR OVC007
     FM281700 20006KT P6SM BKN015 OVC030
     FM282100 VRB05KT P6SM VCSH OVC025=

USA.gov is the U.S. government's official web portal to all federal, state and local government web resources and services.